createdAt,value
2018-08-19T00:00:23.555Z,48.16
2018-08-19T00:02:57.861Z,50.23
2018-08-19T00:05:25.754Z,50.70
2018-08-19T00:07:54.118Z,49.43
2018-08-19T00:10:40.220Z,50.66
2018-08-19T00:13:10.020Z,51.33
2018-08-19T00:15:39.191Z,54.14
2018-08-19T00:18:09.745Z,50.57
2018-08-19T00:20:43.072Z,54.53
2018-08-19T00:23:11.482Z,53.62
2018-08-19T00:25:42.826Z,54.08
2018-08-19T00:28:13.011Z,53.08
2018-08-19T00:30:43.539Z,51.42
2018-08-19T00:33:13.224Z,50.93
2018-08-19T00:35:41.223Z,53.43
2018-08-19T00:38:14.054Z,51.57
2018-08-19T00:40:46.248Z,52.32
2018-08-19T00:43:14.173Z,50.95
2018-08-19T00:45:44.225Z,50.96
2018-08-19T00:48:23.498Z,50.67
2018-08-19T00:50:51.732Z,50.87
2018-08-19T00:53:21.743Z,51.95
2018-08-19T00:55:52.426Z,51.63
2018-08-19T00:58:21.245Z,50.85
2018-08-19T01:00:49.155Z,54.66
2018-08-19T01:03:17.024Z,53.14
2018-08-19T01:05:44.827Z,51.04
2018-08-19T01:08:13.607Z,53.14
2018-08-19T01:10:41.884Z,51.66
2018-08-19T01:13:18.203Z,51.73
2018-08-19T01:15:46.433Z,51.65
2018-08-19T01:18:14.300Z,52.34
2018-08-19T01:20:42.255Z,53.75
2018-08-19T01:23:10.132Z,54.21
2018-08-19T01:25:38.015Z,53.21
2018-08-19T01:28:05.908Z,55.23
2018-08-19T01:30:33.730Z,54.18
2018-08-19T01:33:01.543Z,51.94
2018-08-19T01:35:35.064Z,52.01
2018-08-19T01:40:25.551Z,51.66
2018-08-19T01:42:53.716Z,51.78
2018-08-19T01:45:21.518Z,52.00
2018-08-19T01:47:49.420Z,52.45
2018-08-19T01:50:17.779Z,52.67
2018-08-19T01:52:49.219Z,52.62
2018-08-19T01:55:17.987Z,53.20
2018-08-19T01:57:47.260Z,53.87
2018-08-19T02:00:15.858Z,52.70
2018-08-19T02:02:57.943Z,53.76
2018-08-19T02:05:26.310Z,53.10
2018-08-19T02:07:56.979Z,52.18
2018-08-19T02:10:25.763Z,55.18
2018-08-19T02:12:55.076Z,58.68
2018-08-19T02:15:24.270Z,54.35
2018-08-19T02:17:55.591Z,53.74
2018-08-19T02:20:30.763Z,53.65
2018-08-19T02:22:59.732Z,53.96
2018-08-19T02:25:43.454Z,54.22
2018-08-19T02:28:11.783Z,54.04
2018-08-19T02:30:51.090Z,54.31
2018-08-19T02:33:19.690Z,54.28
2018-08-19T02:36:06.692Z,54.98
2018-08-19T02:38:35.603Z,54.47
2018-08-19T02:41:03.819Z,54.84
2018-08-19T02:43:31.696Z,55.71
2018-08-19T02:45:59.608Z,54.72
2018-08-19T02:48:45.113Z,55.08
2018-08-19T02:51:14.017Z,54.52
2018-08-19T02:53:43.618Z,54.43
2018-08-19T02:56:12.182Z,54.55
2018-08-19T02:58:41.373Z,55.95
2018-08-19T03:01:09.747Z,56.39
2018-08-19T03:03:37.812Z,56.25
2018-08-19T03:06:07.073Z,55.39
2018-08-19T03:08:35.268Z,55.87
2018-08-19T03:11:03.243Z,55.88
2018-08-19T03:13:31.152Z,56.21
2018-08-19T03:15:59.080Z,56.66
2018-08-19T03:18:26.964Z,57.59
2018-08-19T03:20:54.815Z,58.16
2018-08-19T03:23:22.692Z,56.84
2018-08-19T03:25:50.515Z,56.50
2018-08-19T03:28:18.363Z,57.37
2018-08-19T03:30:51.783Z,58.49
2018-08-19T03:33:19.604Z,58.70
2018-08-19T03:35:47.433Z,59.39
2018-08-19T03:38:15.291Z,59.50
2018-08-19T03:40:43.448Z,58.51
2018-08-19T03:43:11.679Z,58.22
2018-08-19T03:45:43.774Z,57.94
2018-08-19T03:48:11.684Z,57.49
2018-08-19T03:50:39.491Z,58.39
2018-08-19T03:53:07.364Z,58.16
2018-08-19T03:55:37.464Z,57.70
2018-08-19T03:58:07.284Z,59.36
2018-08-19T04:00:37.431Z,58.63
2018-08-19T04:03:16.416Z,58.31
2018-08-19T04:05:49.116Z,59.06
2018-08-19T04:08:17.017Z,58.79
2018-08-19T04:10:45.816Z,58.97
2018-08-19T04:13:29.103Z,62.49
2018-08-19T04:15:57.895Z,58.37
2018-08-19T04:18:31.452Z,57.68
2018-08-19T04:21:01.537Z,60.43
2018-08-19T04:23:29.931Z,58.92
2018-08-19T04:25:57.840Z,59.02
2018-08-19T04:28:25.620Z,60.00
2018-08-19T04:30:56.325Z,60.74
2018-08-19T04:33:29.811Z,58.87
2018-08-19T04:35:57.667Z,59.79
2018-08-19T04:38:26.924Z,59.57
2018-08-19T04:40:54.838Z,59.43
2018-08-19T04:43:29.600Z,60.18
2018-08-19T04:45:57.545Z,63.28
2018-08-19T04:48:26.363Z,60.24
2018-08-19T04:50:55.498Z,61.93
2018-08-19T04:53:23.348Z,60.69
2018-08-19T04:55:51.891Z,62.44
2018-08-19T04:58:19.732Z,62.61
2018-08-19T05:00:47.507Z,61.06
2018-08-19T05:03:15.295Z,63.06
2018-08-19T05:05:43.081Z,63.12
2018-08-19T05:08:11.974Z,61.86
2018-08-19T05:10:40.075Z,61.07
2018-08-19T05:13:08.647Z,59.85
2018-08-19T05:15:37.471Z,64.55
2018-08-19T05:18:05.609Z,63.57
2018-08-19T05:20:33.405Z,64.17
2018-08-19T05:23:01.287Z,62.02
2018-08-19T05:25:29.356Z,62.77
2018-08-19T05:28:02.652Z,63.97
2018-08-19T05:30:32.223Z,63.92
2018-08-19T05:33:00.051Z,63.67
2018-08-19T05:35:28.767Z,64.09
2018-08-19T05:37:56.944Z,61.91
2018-08-19T05:40:24.791Z,63.57
2018-08-19T05:42:52.595Z,63.78
2018-08-19T05:45:20.423Z,63.34
2018-08-19T05:48:06.367Z,61.60
2018-08-19T05:50:34.228Z,61.06
2018-08-19T05:53:02.107Z,60.35
2018-08-19T05:55:30.037Z,58.90
2018-08-19T05:57:57.906Z,57.43
2018-08-19T06:00:26.785Z,57.39
2018-08-19T06:02:58.168Z,56.21
2018-08-19T06:05:26.479Z,56.26
2018-08-19T06:08:00.008Z,55.54
2018-08-19T06:10:27.908Z,56.07
2018-08-19T06:12:56.032Z,55.23
2018-08-19T06:15:23.975Z,55.08
2018-08-19T06:17:51.816Z,54.98
2018-08-19T06:20:19.630Z,55.08
2018-08-19T06:22:48.167Z,54.73
2018-08-19T06:25:16.009Z,54.97
2018-08-19T06:27:45.052Z,54.82
2018-08-19T06:30:13.727Z,54.46
2018-08-19T06:32:41.720Z,54.80
2018-08-19T06:35:09.645Z,54.30
2018-08-19T06:37:37.611Z,55.01
2018-08-19T06:40:07.583Z,55.00
2018-08-19T06:42:36.175Z,54.82
2018-08-19T06:45:04.776Z,54.42
2018-08-19T06:47:32.696Z,54.52
2018-08-19T06:50:01.001Z,53.25
2018-08-19T06:52:28.920Z,54.24
2018-08-19T06:54:56.770Z,53.68
2018-08-19T06:57:28.196Z,53.67
2018-08-19T06:59:56.350Z,53.79
2018-08-19T07:02:24.209Z,53.20
2018-08-19T07:04:52.118Z,53.13
2018-08-19T07:07:20.228Z,53.03
2018-08-19T07:09:48.083Z,52.66
2018-08-19T07:12:18.303Z,53.64
2018-08-19T07:14:46.746Z,54.00
2018-08-19T07:17:15.463Z,52.31
2018-08-19T07:19:43.339Z,52.30
2018-08-19T07:22:17.273Z,52.75
2018-08-19T07:24:45.102Z,51.61
2018-08-19T07:27:13.020Z,50.35
2018-08-19T07:29:40.892Z,50.46
2018-08-19T07:32:10.555Z,50.21
2018-08-19T07:34:38.385Z,49.26
2018-08-19T07:37:06.376Z,49.03
2018-08-19T07:39:42.538Z,48.76
2018-08-19T07:42:10.316Z,48.74
2018-08-19T07:44:38.248Z,47.45
2018-08-19T07:47:06.159Z,47.05
2018-08-19T07:49:34.072Z,46.84
2018-08-19T07:52:02.302Z,46.87
2018-08-19T07:54:30.161Z,46.40
2018-08-19T07:57:03.504Z,46.67
2018-08-19T07:59:31.329Z,45.67
2018-08-19T08:01:59.247Z,45.01
2018-08-19T08:04:31.622Z,45.35
2018-08-19T08:06:59.455Z,45.61
2018-08-19T08:09:27.572Z,45.72
2018-08-19T08:11:55.419Z,45.63
2018-08-19T08:14:23.165Z,46.24
2018-08-19T08:16:54.368Z,45.61
2018-08-19T08:19:23.928Z,45.69
2018-08-19T08:21:55.780Z,45.26
2018-08-19T08:24:23.636Z,45.59
2018-08-19T08:26:55.208Z,45.00
2018-08-19T08:29:23.108Z,45.26
2018-08-19T08:31:55.711Z,45.46
2018-08-19T08:34:25.096Z,45.03
2018-08-19T08:36:58.219Z,44.13
2018-08-19T08:39:26.081Z,44.23
2018-08-19T08:41:54.308Z,43.66
2018-08-19T08:44:22.089Z,44.32
2018-08-19T08:46:49.916Z,43.39
2018-08-19T08:49:17.679Z,43.60
2018-08-19T08:51:45.577Z,42.39
2018-08-19T08:54:13.435Z,43.59
2018-08-19T08:56:41.299Z,43.61
2018-08-19T08:59:09.195Z,41.81
2018-08-19T09:01:37.013Z,42.73
2018-08-19T09:04:04.887Z,42.07
2018-08-19T09:06:32.756Z,42.70
2018-08-19T09:09:00.608Z,41.47
2018-08-19T09:11:28.472Z,40.83
2018-08-19T09:13:56.366Z,40.04
2018-08-19T09:16:24.123Z,41.24
2018-08-19T09:18:52.215Z,41.15
2018-08-19T09:21:20.079Z,40.31
2018-08-19T09:23:47.891Z,40.60
2018-08-19T09:26:15.696Z,41.39
2018-08-19T09:28:43.680Z,39.68
2018-08-19T09:31:11.607Z,38.32
2018-08-19T09:33:39.483Z,38.34
2018-08-19T09:36:07.400Z,37.83
2018-08-19T09:38:35.239Z,38.60
2018-08-19T09:41:03.035Z,37.33
2018-08-19T09:43:30.808Z,38.83
2018-08-19T09:45:58.719Z,34.64
2018-08-19T09:48:26.497Z,35.69
2018-08-19T09:51:00.800Z,35.85
2018-08-19T09:53:28.641Z,35.56
2018-08-19T09:56:02.027Z,35.64
2018-08-19T09:58:29.841Z,35.68
2018-08-19T10:01:03.260Z,34.20
2018-08-19T10:03:31.517Z,34.07
2018-08-19T10:05:59.415Z,34.79
2018-08-19T10:08:27.369Z,33.93
2018-08-19T10:10:55.172Z,32.90
2018-08-19T10:13:23.059Z,34.13
2018-08-19T10:15:50.851Z,33.71
2018-08-19T10:18:18.772Z,33.68
2018-08-19T10:20:46.592Z,33.86
2018-08-19T10:23:14.348Z,33.29
2018-08-19T10:25:42.251Z,32.74
2018-08-19T10:28:10.159Z,33.31
2018-08-19T10:30:45.481Z,31.99
2018-08-19T10:33:13.245Z,32.48
2018-08-19T10:35:41.149Z,31.00
2018-08-19T10:38:09.020Z,32.35
2018-08-19T10:40:36.860Z,31.29
2018-08-19T10:43:07.934Z,29.71
2018-08-19T10:45:39.188Z,27.81
2018-08-19T10:48:11.491Z,28.56
2018-08-19T10:50:39.375Z,28.33
2018-08-19T10:53:16.124Z,26.20
2018-08-19T10:55:45.424Z,26.72
2018-08-19T10:58:13.370Z,26.18
2018-08-19T11:00:41.250Z,25.84
2018-08-19T11:03:15.932Z,23.96
2018-08-19T11:05:48.208Z,24.25
2018-08-19T11:08:16.048Z,23.86
2018-08-19T11:10:43.991Z,23.79
2018-08-19T11:13:11.886Z,23.08
2018-08-19T11:15:47.565Z,21.63
2018-08-19T11:18:39.145Z,22.46
2018-08-19T11:21:13.210Z,20.49
2018-08-19T11:23:42.395Z,20.23
2018-08-19T11:26:10.830Z,20.08
2018-08-19T11:28:40.852Z,19.86
2018-08-19T11:31:19.040Z,18.13
2018-08-19T11:33:47.070Z,18.19
2018-08-19T11:36:14.984Z,18.09
2018-08-19T11:38:49.236Z,17.84
2018-08-19T11:41:17.615Z,16.91
2018-08-19T11:43:46.516Z,17.30
2018-08-19T11:46:14.367Z,16.99
2018-08-19T11:48:42.568Z,16.11
2018-08-19T11:51:10.439Z,16.80
2018-08-19T11:53:38.291Z,16.10
2018-08-19T11:56:06.276Z,16.11
2018-08-19T11:58:43.562Z,16.47
2018-08-19T12:01:14.655Z,15.75
2018-08-19T12:03:55.475Z,16.20
2018-08-19T12:06:26.647Z,15.59
2018-08-19T12:08:55.836Z,17.93
2018-08-19T12:11:28.376Z,16.33
2018-08-19T12:13:56.206Z,17.29
2018-08-19T12:16:25.519Z,17.57
2018-08-19T12:18:53.412Z,16.28
2018-08-19T12:21:22.247Z,17.10
2018-08-19T12:23:51.012Z,16.46
2018-08-19T12:26:20.111Z,17.81
2018-08-19T12:28:47.992Z,16.87
2018-08-19T12:31:15.755Z,16.90
2018-08-19T12:33:43.569Z,16.90
2018-08-19T12:36:11.380Z,16.82
2018-08-19T12:38:39.141Z,17.01
2018-08-19T12:41:07.039Z,16.87
2018-08-19T12:43:35.617Z,17.21
2018-08-19T12:46:03.515Z,17.65
2018-08-19T12:48:31.340Z,17.03
2018-08-19T12:51:03.707Z,17.67
2018-08-19T12:53:32.587Z,17.91
2018-08-19T12:56:00.662Z,17.39
2018-08-19T12:58:28.534Z,18.31
2018-08-19T13:00:57.492Z,18.74
2018-08-19T13:03:27.314Z,17.91
2018-08-19T13:06:02.620Z,18.23
2018-08-19T13:08:30.519Z,17.92
2018-08-19T13:11:03.484Z,17.65
2018-08-19T13:13:31.836Z,18.59
2018-08-19T13:16:00.491Z,18.25
2018-08-19T13:18:33.931Z,19.18
2018-08-19T13:21:08.555Z,17.87
2018-08-19T13:23:36.508Z,18.80
2018-08-19T13:26:04.318Z,19.70
2018-08-19T13:28:36.290Z,18.45
2018-08-19T13:31:04.568Z,19.60
2018-08-19T13:33:32.447Z,19.24
2018-08-19T13:36:00.332Z,19.78
2018-08-19T13:38:37.159Z,19.94
2018-08-19T13:41:07.154Z,21.27
2018-08-19T13:43:35.979Z,20.26
2018-08-19T13:46:04.063Z,21.45
2018-08-19T13:48:32.180Z,21.06
2018-08-19T13:51:00.022Z,21.17
2018-08-19T13:53:27.831Z,22.38
2018-08-19T13:55:55.776Z,21.87
2018-08-19T13:58:23.644Z,23.03
2018-08-19T14:00:51.448Z,22.36
2018-08-19T14:03:19.323Z,21.99
2018-08-19T14:05:47.124Z,22.90
2018-08-19T14:08:17.577Z,22.48
2018-08-19T14:10:45.370Z,22.51
2018-08-19T14:13:13.140Z,24.19
2018-08-19T14:15:40.910Z,23.31
2018-08-19T14:18:08.779Z,23.89
2018-08-19T14:20:39.328Z,23.68
2018-08-19T14:23:07.195Z,22.70
2018-08-19T14:25:34.989Z,23.36
2018-08-19T14:28:02.832Z,23.73
2018-08-19T14:30:30.818Z,23.31
2018-08-19T14:33:00.828Z,23.66
2018-08-19T14:35:33.191Z,24.02
2018-08-19T14:38:01.048Z,23.60
2018-08-19T14:40:29.274Z,24.50
2018-08-19T14:42:57.028Z,23.99
2018-08-19T14:45:24.887Z,24.76
2018-08-19T14:47:53.067Z,23.39
2018-08-19T14:50:21.047Z,24.31
2018-08-19T14:52:48.871Z,24.20
2018-08-19T14:55:17.129Z,24.90
2018-08-19T14:57:45.284Z,24.73
2018-08-19T15:00:15.521Z,24.11
2018-08-19T15:02:43.367Z,24.15
2018-08-19T15:05:15.115Z,23.51
2018-08-19T15:07:43.833Z,23.98
2018-08-19T15:10:19.359Z,24.13
2018-08-19T15:12:47.251Z,24.78
2018-08-19T15:15:15.299Z,23.45
2018-08-19T15:17:48.496Z,24.93
2018-08-19T15:20:21.689Z,23.15
2018-08-19T15:22:49.495Z,23.44
2018-08-19T15:25:17.214Z,24.23
2018-08-19T15:27:50.626Z,23.26
2018-08-19T15:30:24.097Z,23.86
2018-08-19T15:32:52.256Z,23.80
2018-08-19T15:35:19.716Z,24.48
2018-08-19T15:37:47.519Z,23.79
2018-08-19T15:40:31.531Z,23.20
2018-08-19T15:42:59.357Z,22.00
2018-08-19T15:45:27.123Z,24.00
2018-08-19T15:47:54.960Z,20.45
2018-08-19T15:50:22.786Z,21.86
2018-08-19T15:52:50.714Z,21.43
2018-08-19T15:55:18.528Z,22.02
2018-08-19T15:57:46.343Z,22.61
2018-08-19T16:00:14.179Z,22.72
2018-08-19T16:02:41.967Z,22.36
2018-08-19T16:05:14.455Z,21.46
2018-08-19T16:07:42.700Z,21.86
2018-08-19T16:10:12.375Z,21.62
2018-08-19T16:12:45.067Z,22.34
2018-08-19T16:15:19.139Z,21.53
2018-08-19T16:17:47.217Z,21.82
2018-08-19T16:20:15.118Z,22.42
2018-08-19T16:22:42.919Z,22.66
2018-08-19T16:25:10.821Z,23.06
2018-08-19T16:27:38.660Z,21.23
2018-08-19T16:30:06.779Z,22.56
2018-08-19T16:32:40.440Z,22.82
2018-08-19T16:35:08.311Z,22.64
2018-08-19T16:37:36.153Z,22.54
2018-08-19T16:40:07.507Z,23.00
2018-08-19T16:42:35.718Z,21.70
2018-08-19T16:45:04.216Z,22.19
2018-08-19T16:47:32.231Z,22.50
2018-08-19T16:50:00.106Z,22.94
2018-08-19T16:52:27.863Z,23.22
2018-08-19T16:54:55.781Z,23.46
2018-08-19T16:57:23.637Z,23.57
2018-08-19T16:59:52.374Z,23.67
2018-08-19T17:02:20.244Z,22.06
2018-08-19T17:04:48.036Z,21.89
2018-08-19T17:07:15.836Z,21.49
2018-08-19T17:09:43.714Z,22.56
2018-08-19T17:12:11.571Z,21.86
2018-08-19T17:14:39.368Z,22.53
2018-08-19T17:17:07.441Z,23.32
2018-08-19T17:19:35.224Z,23.36
2018-08-19T17:22:07.309Z,23.64
2018-08-19T17:24:37.635Z,22.26
2018-08-19T17:27:10.906Z,22.51
2018-08-19T17:29:39.157Z,22.14
2018-08-19T17:32:07.180Z,22.80
2018-08-19T17:34:38.555Z,23.00
2018-08-19T17:37:08.332Z,22.64
2018-08-19T17:39:36.394Z,22.82
2018-08-19T17:42:04.544Z,23.14
2018-08-19T17:44:32.808Z,22.94
2018-08-19T17:47:01.799Z,22.17
2018-08-19T17:49:30.683Z,23.28
2018-08-19T17:51:59.550Z,23.44
2018-08-19T17:54:29.707Z,22.41
2018-08-19T17:56:58.729Z,22.99
2018-08-19T17:59:26.566Z,23.04
2018-08-19T18:01:54.456Z,24.24
2018-08-19T18:04:26.027Z,24.11
2018-08-19T18:06:53.807Z,24.15
2018-08-19T18:09:21.631Z,23.68
2018-08-19T18:11:54.821Z,23.39
2018-08-19T18:14:22.811Z,24.03
2018-08-19T18:16:50.666Z,24.51
2018-08-19T18:19:19.891Z,25.01
2018-08-19T18:21:47.752Z,25.60
2018-08-19T18:24:15.606Z,24.59
2018-08-19T18:26:43.344Z,25.37
2018-08-19T18:29:11.319Z,25.75
2018-08-19T18:31:39.107Z,25.54
2018-08-19T18:34:07.974Z,25.65
2018-08-19T18:36:36.198Z,24.94
2018-08-19T18:39:08.270Z,25.50
2018-08-19T18:41:37.543Z,25.99
2018-08-19T18:44:07.540Z,25.82
2018-08-19T18:46:35.867Z,26.56
2018-08-19T18:49:13.027Z,26.17
2018-08-19T18:51:44.912Z,26.36
2018-08-19T18:54:24.219Z,26.96
2018-08-19T18:56:52.180Z,27.41
2018-08-19T18:59:20.080Z,27.68
2018-08-19T19:01:47.923Z,27.95
2018-08-19T19:04:15.820Z,27.83
2018-08-19T19:06:43.579Z,27.97
2018-08-19T19:09:11.423Z,28.56
2018-08-19T19:11:39.293Z,27.96
2018-08-19T19:14:17.465Z,29.12
2018-08-19T19:16:49.454Z,29.30
2018-08-19T19:19:17.294Z,28.85
2018-08-19T19:21:50.875Z,28.69
2018-08-19T19:24:24.236Z,28.76
2018-08-19T19:26:52.103Z,29.07
2018-08-19T19:29:25.682Z,29.54
2018-08-19T19:31:55.944Z,30.02
2018-08-19T19:34:30.897Z,30.15
2018-08-19T19:36:59.043Z,29.62
2018-08-19T19:39:27.154Z,29.79
2018-08-19T19:42:02.519Z,29.91
2018-08-19T19:44:35.015Z,30.66
2018-08-19T19:47:03.312Z,30.57
2018-08-19T19:49:31.248Z,29.66
2018-08-19T19:52:02.451Z,29.50
2018-08-19T19:54:32.213Z,30.35
2018-08-19T19:57:00.604Z,30.64
2018-08-19T19:59:31.824Z,31.19
2018-08-19T20:01:59.813Z,30.72
2018-08-19T20:04:28.200Z,32.13
2018-08-19T20:06:56.049Z,31.46
2018-08-19T20:09:24.095Z,31.22
2018-08-19T20:11:52.136Z,31.71
2018-08-19T20:14:19.977Z,31.68
2018-08-19T20:16:47.755Z,32.80
2018-08-19T20:19:15.573Z,32.54
2018-08-19T20:21:43.335Z,32.14
2018-08-19T20:24:11.123Z,33.06
2018-08-19T20:26:39.027Z,32.29
2018-08-19T20:29:06.948Z,32.21
2018-08-19T20:31:34.682Z,32.67
2018-08-19T20:34:02.457Z,32.49
2018-08-19T20:36:30.219Z,32.47
2018-08-19T20:38:58.161Z,32.89
2018-08-19T20:41:26.008Z,33.37
2018-08-19T20:43:53.853Z,34.44
2018-08-19T20:46:21.603Z,34.64
2018-08-19T20:48:49.438Z,33.88
2018-08-19T20:51:17.290Z,37.27
2018-08-19T20:53:45.102Z,37.42
2018-08-19T20:56:13.036Z,36.58
2018-08-19T20:58:40.877Z,37.81
2018-08-19T21:01:15.760Z,37.33
2018-08-19T21:03:44.001Z,39.62
2018-08-19T21:06:12.182Z,35.84
2018-08-19T21:08:40.295Z,37.41
2018-08-19T21:11:12.603Z,39.84
2018-08-19T21:13:41.630Z,39.20
2018-08-19T21:16:09.491Z,40.51
2018-08-19T21:18:37.251Z,39.99
2018-08-19T21:21:05.084Z,40.53
2018-08-19T21:23:32.903Z,40.28
2018-08-19T21:26:01.477Z,39.44
2018-08-19T21:28:29.347Z,40.85
2018-08-19T21:30:57.187Z,38.67
2018-08-19T21:33:25.035Z,41.50
2018-08-19T21:35:54.155Z,39.15
2018-08-19T21:38:22.011Z,40.74
2018-08-19T21:40:54.543Z,38.54
2018-08-19T21:43:26.806Z,38.72
2018-08-19T21:45:54.651Z,39.37
2018-08-19T21:48:22.491Z,37.83
2018-08-19T21:50:50.318Z,37.50
2018-08-19T21:53:18.944Z,37.38
2018-08-19T21:55:48.116Z,37.71
2018-08-19T21:58:15.967Z,38.87
2018-08-19T22:00:47.492Z,37.39
2018-08-19T22:03:21.759Z,37.73
2018-08-19T22:05:51.744Z,38.38
2018-08-19T22:08:21.293Z,41.62
2018-08-19T22:10:49.099Z,43.22
2018-08-19T22:13:16.983Z,42.92
2018-08-19T22:15:45.737Z,41.83
2018-08-19T22:18:16.269Z,45.04
2018-08-19T22:21:02.876Z,45.37
2018-08-19T22:23:43.557Z,41.17
2018-08-19T22:26:12.724Z,43.24
2018-08-19T22:28:40.891Z,44.82
2018-08-19T22:31:23.829Z,43.43
2018-08-19T22:33:56.804Z,46.03
2018-08-19T22:36:24.779Z,40.51
2018-08-19T22:38:53.413Z,40.04
2018-08-19T22:41:36.647Z,41.47
2018-08-19T22:44:04.488Z,48.10
2018-08-19T22:46:32.341Z,48.57
2018-08-19T22:49:00.217Z,48.11
2018-08-19T22:51:30.893Z,48.86
2018-08-19T22:53:58.727Z,49.54
2018-08-19T22:56:26.514Z,49.60
2018-08-19T22:58:54.329Z,50.37
2018-08-19T23:01:22.435Z,51.25
2018-08-19T23:04:00.166Z,51.11
2018-08-19T23:06:28.612Z,49.98
2018-08-19T23:08:56.404Z,51.01
2018-08-19T23:11:27.168Z,50.89
2018-08-19T23:14:12.217Z,50.73
2018-08-19T23:16:40.099Z,52.11
2018-08-19T23:19:07.901Z,52.76
2018-08-19T23:21:35.691Z,51.55
2018-08-19T23:24:03.557Z,52.57
2018-08-19T23:26:31.455Z,53.91
2018-08-19T23:28:59.270Z,52.44
2018-08-19T23:31:27.127Z,53.30
2018-08-19T23:33:55.044Z,50.88
2018-08-19T23:36:22.897Z,48.80
2018-08-19T23:38:50.809Z,46.84
2018-08-19T23:41:18.669Z,48.55
2018-08-19T23:43:46.405Z,46.35
2018-08-19T23:46:14.195Z,45.65
2018-08-19T23:48:42.039Z,47.43
2018-08-19T23:51:11.398Z,46.53
2018-08-19T23:53:39.256Z,46.57
2018-08-19T23:56:07.141Z,45.68
2018-08-19T23:58:34.981Z,47.51
